sensor_id;sensor_type;location;lat;lon;timestamp;temperature;humidity
3190;DHT22;1606;51.946;10.558;2023-04-25T00:01:31;10.40;99.90
3190;DHT22;1606;51.946;10.558;2023-04-25T00:04:00;10.50;99.90
3190;DHT22;1606;51.946;10.558;2023-04-25T00:06:28;10.00;99.90
3190;DHT22;1606;51.946;10.558;2023-04-25T00:08:56;10.00;99.90
3190;DHT22;1606;51.946;10.558;2023-04-25T00:11:25;10.10;99.90
3190;DHT22;1606;51.946;10.558;2023-04-25T00:13:53;10.10;99.90
3190;DHT22;1606;51.946;10.558;2023-04-25T00:16:21;10.00;99.90
3190;DHT22;1606;51.946;10.558;2023-04-25T00:18:51;10.10;99.90
3190;DHT22;1606;51.946;10.558;2023-04-25T00:21:20;10.10;99.90
3190;DHT22;1606;51.946;10.558;2023-04-25T00:23:48;10.10;99.90
3190;DHT22;1606;51.946;10.558;2023-04-25T00:26:17;10.10;99.90
3190;DHT22;1606;51.946;10.558;2023-04-25T00:28:46;9.70;99.90
3190;DHT22;1606;51.946;10.558;2023-04-25T00:31:14;9.70;99.90
3190;DHT22;1606;51.946;10.558;2023-04-25T00:33:42;9.70;99.90
3190;DHT22;1606;51.946;10.558;2023-04-25T00:36:10;9.80;99.90
3190;DHT22;1606;51.946;10.558;2023-04-25T00:38:37;9.70;99.90
3190;DHT22;1606;51.946;10.558;2023-04-25T00:41:06;9.70;99.90
3190;DHT22;1606;51.946;10.558;2023-04-25T00:43:36;9.60;99.90
3190;DHT22;1606;51.946;10.558;2023-04-25T00:46:05;9.60;99.90
3190;DHT22;1606;51.946;10.558;2023-04-25T00:48:33;9.90;99.90
3190;DHT22;1606;51.946;10.558;2023-04-25T00:51:01;9.80;99.90
3190;DHT22;1606;51.946;10.558;2023-04-25T00:53:30;9.70;99.90
3190;DHT22;1606;51.946;10.558;2023-04-25T00:55:59;9.70;99.90
3190;DHT22;1606;51.946;10.558;2023-04-25T00:58:27;9.60;99.90
3190;DHT22;1606;51.946;10.558;2023-04-25T01:00:56;9.70;99.90
3190;DHT22;1606;51.946;10.558;2023-04-25T01:03:26;10.00;99.90
3190;DHT22;1606;51.946;10.558;2023-04-25T01:05:55;10.00;99.90
3190;DHT22;1606;51.946;10.558;2023-04-25T01:08:24;9.80;99.90
3190;DHT22;1606;51.946;10.558;2023-04-25T01:10:52;9.90;99.90
3190;DHT22;1606;51.946;10.558;2023-04-25T01:13:20;9.90;99.90
3190;DHT22;1606;51.946;10.558;2023-04-25T01:15:48;10.00;99.90
3190;DHT22;1606;51.946;10.558;2023-04-25T01:18:16;10.20;99.90
3190;DHT22;1606;51.946;10.558;2023-04-25T01:20:46;10.10;99.90
3190;DHT22;1606;51.946;10.558;2023-04-25T01:23:15;10.10;99.90
3190;DHT22;1606;51.946;10.558;2023-04-25T01:25:43;9.90;99.90
3190;DHT22;1606;51.946;10.558;2023-04-25T01:28:11;9.80;99.90
3190;DHT22;1606;51.946;10.558;2023-04-25T01:30:40;9.60;99.90
3190;DHT22;1606;51.946;10.558;2023-04-25T01:33:08;9.50;99.90
3190;DHT22;1606;51.946;10.558;2023-04-25T01:35:36;9.60;99.90
3190;DHT22;1606;51.946;10.558;2023-04-25T01:38:03;9.70;99.90
3190;DHT22;1606;51.946;10.558;2023-04-25T01:40:33;9.80;99.90
3190;DHT22;1606;51.946;10.558;2023-04-25T01:43:01;9.90;99.90
3190;DHT22;1606;51.946;10.558;2023-04-25T01:45:29;9.80;99.90
3190;DHT22;1606;51.946;10.558;2023-04-25T01:47:57;9.70;99.90
3190;DHT22;1606;51.946;10.558;2023-04-25T01:50:26;9.40;99.90
3190;DHT22;1606;51.946;10.558;2023-04-25T01:52:54;9.50;99.90
3190;DHT22;1606;51.946;10.558;2023-04-25T01:55:22;9.60;99.90
3190;DHT22;1606;51.946;10.558;2023-04-25T01:57:51;9.60;99.90
3190;DHT22;1606;51.946;10.558;2023-04-25T02:00:19;9.70;99.90
3190;DHT22;1606;51.946;10.558;2023-04-25T02:02:47;9.60;99.90
3190;DHT22;1606;51.946;10.558;2023-04-25T02:05:17;9.60;99.90
3190;DHT22;1606;51.946;10.558;2023-04-25T02:07:45;9.50;99.90
3190;DHT22;1606;51.946;10.558;2023-04-25T02:10:13;9.70;99.90
3190;DHT22;1606;51.946;10.558;2023-04-25T02:12:41;9.70;99.90
3190;DHT22;1606;51.946;10.558;2023-04-25T02:15:10;9.60;99.90
3190;DHT22;1606;51.946;10.558;2023-04-25T02:17:38;9.30;99.90
3190;DHT22;1606;51.946;10.558;2023-04-25T02:20:06;9.20;99.90
3190;DHT22;1606;51.946;10.558;2023-04-25T02:22:34;9.30;99.90
3190;DHT22;1606;51.946;10.558;2023-04-25T02:25:03;9.30;99.90
3190;DHT22;1606;51.946;10.558;2023-04-25T02:27:31;9.40;99.90
3190;DHT22;1606;51.946;10.558;2023-04-25T02:29:59;9.40;99.90
3190;DHT22;1606;51.946;10.558;2023-04-25T02:32:28;9.40;99.90
3190;DHT22;1606;51.946;10.558;2023-04-25T02:34:56;9.30;99.90
3190;DHT22;1606;51.946;10.558;2023-04-25T02:37:25;9.40;99.90
3190;DHT22;1606;51.946;10.558;2023-04-25T02:39:52;9.40;99.90
3190;DHT22;1606;51.946;10.558;2023-04-25T02:42:20;9.30;99.90
3190;DHT22;1606;51.946;10.558;2023-04-25T02:44:48;9.50;99.90
3190;DHT22;1606;51.946;10.558;2023-04-25T02:47:16;9.60;99.90
3190;DHT22;1606;51.946;10.558;2023-04-25T02:49:45;9.70;99.90
3190;DHT22;1606;51.946;10.558;2023-04-25T02:52:13;9.70;99.90
3190;DHT22;1606;51.946;10.558;2023-04-25T02:54:41;9.60;99.90
3190;DHT22;1606;51.946;10.558;2023-04-25T02:57:08;9.70;99.90
3190;DHT22;1606;51.946;10.558;2023-04-25T02:59:36;9.80;99.90
3190;DHT22;1606;51.946;10.558;2023-04-25T03:02:04;9.80;99.90
3190;DHT22;1606;51.946;10.558;2023-04-25T03:04:32;9.80;99.90
3190;DHT22;1606;51.946;10.558;2023-04-25T03:07:01;9.70;99.90
3190;DHT22;1606;51.946;10.558;2023-04-25T03:09:29;9.80;99.90
3190;DHT22;1606;51.946;10.558;2023-04-25T03:11:57;9.70;99.90
3190;DHT22;1606;51.946;10.558;2023-04-25T03:14:25;9.40;99.90
3190;DHT22;1606;51.946;10.558;2023-04-25T03:16:53;9.30;99.90
3190;DHT22;1606;51.946;10.558;2023-04-25T03:19:21;9.40;99.90
3190;DHT22;1606;51.946;10.558;2023-04-25T03:21:48;9.50;99.90
3190;DHT22;1606;51.946;10.558;2023-04-25T03:24:18;9.60;99.90
3190;DHT22;1606;51.946;10.558;2023-04-25T03:26:46;9.50;99.90
3190;DHT22;1606;51.946;10.558;2023-04-25T03:29:13;9.50;99.90
3190;DHT22;1606;51.946;10.558;2023-04-25T03:31:41;9.60;99.90
3190;DHT22;1606;51.946;10.558;2023-04-25T03:34:09;9.70;99.90
3190;DHT22;1606;51.946;10.558;2023-04-25T03:36:37;9.60;99.90
3190;DHT22;1606;51.946;10.558;2023-04-25T03:39:07;9.40;99.90
3190;DHT22;1606;51.946;10.558;2023-04-25T03:41:36;9.50;99.90
3190;DHT22;1606;51.946;10.558;2023-04-25T03:44:04;9.60;99.90
3190;DHT22;1606;51.946;10.558;2023-04-25T03:46:32;9.70;99.90
3190;DHT22;1606;51.946;10.558;2023-04-25T03:48:59;9.70;99.90
3190;DHT22;1606;51.946;10.558;2023-04-25T03:51:27;9.60;99.90
3190;DHT22;1606;51.946;10.558;2023-04-25T03:53:55;9.70;99.90
3190;DHT22;1606;51.946;10.558;2023-04-25T03:56:23;9.80;99.90
3190;DHT22;1606;51.946;10.558;2023-04-25T03:58:53;9.70;99.90
3190;DHT22;1606;51.946;10.558;2023-04-25T04:01:21;9.60;99.90
3190;DHT22;1606;51.946;10.558;2023-04-25T04:03:49;9.30;99.90
3190;DHT22;1606;51.946;10.558;2023-04-25T04:06:17;9.20;99.90
3190;DHT22;1606;51.946;10.558;2023-04-25T04:08:47;9.00;99.90
3190;DHT22;1606;51.946;10.558;2023-04-25T04:11:15;8.70;99.90
3190;DHT22;1606;51.946;10.558;2023-04-25T04:13:42;8.80;99.90
3190;DHT22;1606;51.946;10.558;2023-04-25T04:16:11;8.90;99.90
3190;DHT22;1606;51.946;10.558;2023-04-25T04:18:39;8.70;99.90
3190;DHT22;1606;51.946;10.558;2023-04-25T04:21:07;8.50;99.90
3190;DHT22;1606;51.946;10.558;2023-04-25T04:23:35;8.70;99.90
3190;DHT22;1606;51.946;10.558;2023-04-25T04:26:13;9.00;99.90
3190;DHT22;1606;51.946;10.558;2023-04-25T04:28:42;9.10;99.90
3190;DHT22;1606;51.946;10.558;2023-04-25T04:31:11;9.00;99.90
3190;DHT22;1606;51.946;10.558;2023-04-25T04:33:42;8.90;99.90
3190;DHT22;1606;51.946;10.558;2023-04-25T04:36:11;8.80;99.90
3190;DHT22;1606;51.946;10.558;2023-04-25T04:38:39;8.60;99.90
3190;DHT22;1606;51.946;10.558;2023-04-25T04:41:08;8.70;99.90
3190;DHT22;1606;51.946;10.558;2023-04-25T04:43:36;8.70;99.90
3190;DHT22;1606;51.946;10.558;2023-04-25T04:46:06;8.90;99.90
3190;DHT22;1606;51.946;10.558;2023-04-25T04:48:35;8.40;99.90
3190;DHT22;1606;51.946;10.558;2023-04-25T04:51:03;8.50;99.90
3190;DHT22;1606;51.946;10.558;2023-04-25T04:53:30;8.60;99.90
3190;DHT22;1606;51.946;10.558;2023-04-25T04:55:58;8.70;99.90
3190;DHT22;1606;51.946;10.558;2023-04-25T04:58:26;8.80;99.90
3190;DHT22;1606;51.946;10.558;2023-04-25T05:00:56;8.90;99.90
3190;DHT22;1606;51.946;10.558;2023-04-25T05:03:24;8.70;99.90
3190;DHT22;1606;51.946;10.558;2023-04-25T05:05:53;8.50;99.90
3190;DHT22;1606;51.946;10.558;2023-04-25T05:08:21;8.50;99.90
3190;DHT22;1606;51.946;10.558;2023-04-25T05:10:49;8.80;99.90
3190;DHT22;1606;51.946;10.558;2023-04-25T05:13:17;8.90;99.90
3190;DHT22;1606;51.946;10.558;2023-04-25T05:15:44;9.00;99.90
3190;DHT22;1606;51.946;10.558;2023-04-25T05:18:12;9.00;99.90
3190;DHT22;1606;51.946;10.558;2023-04-25T05:20:40;9.00;99.90
3190;DHT22;1606;51.946;10.558;2023-04-25T05:23:10;9.00;99.90
3190;DHT22;1606;51.946;10.558;2023-04-25T05:25:37;9.10;99.90
3190;DHT22;1606;51.946;10.558;2023-04-25T05:28:05;9.10;99.90
3190;DHT22;1606;51.946;10.558;2023-04-25T05:30:34;9.10;99.90
3190;DHT22;1606;51.946;10.558;2023-04-25T05:33:01;9.20;99.90
3190;DHT22;1606;51.946;10.558;2023-04-25T05:35:29;9.20;99.90
3190;DHT22;1606;51.946;10.558;2023-04-25T05:37:57;9.10;99.90
3190;DHT22;1606;51.946;10.558;2023-04-25T05:40:26;9.10;99.90
3190;DHT22;1606;51.946;10.558;2023-04-25T05:42:54;9.30;99.90
3190;DHT22;1606;51.946;10.558;2023-04-25T05:45:22;9.30;99.90
3190;DHT22;1606;51.946;10.558;2023-04-25T05:47:50;9.20;99.90
3190;DHT22;1606;51.946;10.558;2023-04-25T05:50:17;9.20;99.90
3190;DHT22;1606;51.946;10.558;2023-04-25T05:52:45;9.10;99.90
3190;DHT22;1606;51.946;10.558;2023-04-25T05:55:13;9.20;99.90
3190;DHT22;1606;51.946;10.558;2023-04-25T05:57:43;9.30;99.90
3190;DHT22;1606;51.946;10.558;2023-04-25T06:00:13;9.00;99.90
3190;DHT22;1606;51.946;10.558;2023-04-25T06:02:42;8.80;99.90
3190;DHT22;1606;51.946;10.558;2023-04-25T06:05:10;9.00;99.90
3190;DHT22;1606;51.946;10.558;2023-04-25T06:07:38;9.10;99.90
3190;DHT22;1606;51.946;10.558;2023-04-25T06:10:07;9.20;99.90
3190;DHT22;1606;51.946;10.558;2023-04-25T06:12:35;9.20;99.90
3190;DHT22;1606;51.946;10.558;2023-04-25T06:15:06;9.40;99.90
3190;DHT22;1606;51.946;10.558;2023-04-25T06:17:52;9.50;99.90
3190;DHT22;1606;51.946;10.558;2023-04-25T06:20:20;9.50;99.90
3190;DHT22;1606;51.946;10.558;2023-04-25T06:22:50;9.60;99.90
3190;DHT22;1606;51.946;10.558;2023-04-25T06:25:19;9.60;99.90
3190;DHT22;1606;51.946;10.558;2023-04-25T06:27:47;9.30;99.90
3190;DHT22;1606;51.946;10.558;2023-04-25T06:30:16;9.40;99.90
3190;DHT22;1606;51.946;10.558;2023-04-25T06:32:48;9.40;99.90
3190;DHT22;1606;51.946;10.558;2023-04-25T06:35:16;9.40;99.90
3190;DHT22;1606;51.946;10.558;2023-04-25T06:37:44;9.50;99.90
3190;DHT22;1606;51.946;10.558;2023-04-25T06:40:12;9.70;99.90
3190;DHT22;1606;51.946;10.558;2023-04-25T06:42:41;9.60;99.90
3190;DHT22;1606;51.946;10.558;2023-04-25T06:45:09;9.40;99.90
3190;DHT22;1606;51.946;10.558;2023-04-25T06:47:39;9.50;99.90
3190;DHT22;1606;51.946;10.558;2023-04-25T06:50:07;9.60;99.90
3190;DHT22;1606;51.946;10.558;2023-04-25T06:52:35;9.60;99.90
3190;DHT22;1606;51.946;10.558;2023-04-25T06:55:03;9.50;99.90
3190;DHT22;1606;51.946;10.558;2023-04-25T06:57:32;9.50;99.90
3190;DHT22;1606;51.946;10.558;2023-04-25T06:59:59;9.50;99.90
3190;DHT22;1606;51.946;10.558;2023-04-25T07:02:28;9.50;99.90
3190;DHT22;1606;51.946;10.558;2023-04-25T07:04:57;9.40;99.90
3190;DHT22;1606;51.946;10.558;2023-04-25T07:07:26;9.30;99.90
3190;DHT22;1606;51.946;10.558;2023-04-25T07:09:54;8.90;99.90
3190;DHT22;1606;51.946;10.558;2023-04-25T07:12:22;9.00;99.90
3190;DHT22;1606;51.946;10.558;2023-04-25T07:14:49;8.80;99.90
3190;DHT22;1606;51.946;10.558;2023-04-25T07:17:17;8.90;99.90
3190;DHT22;1606;51.946;10.558;2023-04-25T07:19:45;9.00;99.90
3190;DHT22;1606;51.946;10.558;2023-04-25T07:22:14;9.20;99.90
3190;DHT22;1606;51.946;10.558;2023-04-25T07:24:42;9.20;99.90
3190;DHT22;1606;51.946;10.558;2023-04-25T07:27:13;9.40;99.90
3190;DHT22;1606;51.946;10.558;2023-04-25T07:29:41;9.60;99.90
3190;DHT22;1606;51.946;10.558;2023-04-25T07:32:09;9.60;99.90
3190;DHT22;1606;51.946;10.558;2023-04-25T07:34:39;9.30;99.90
3190;DHT22;1606;51.946;10.558;2023-04-25T07:37:07;9.20;99.90
3190;DHT22;1606;51.946;10.558;2023-04-25T07:39:37;9.40;99.90
3190;DHT22;1606;51.946;10.558;2023-04-25T07:42:05;9.30;99.90
3190;DHT22;1606;51.946;10.558;2023-04-25T07:44:34;9.60;99.90
3190;DHT22;1606;51.946;10.558;2023-04-25T07:47:05;9.50;99.90
3190;DHT22;1606;51.946;10.558;2023-04-25T07:49:34;9.30;99.90
3190;DHT22;1606;51.946;10.558;2023-04-25T07:52:03;9.20;99.90
3190;DHT22;1606;51.946;10.558;2023-04-25T07:54:32;9.40;99.90
3190;DHT22;1606;51.946;10.558;2023-04-25T07:57:01;9.70;99.90
3190;DHT22;1606;51.946;10.558;2023-04-25T07:59:37;9.80;99.90
3190;DHT22;1606;51.946;10.558;2023-04-25T08:02:05;9.80;99.90
3190;DHT22;1606;51.946;10.558;2023-04-25T08:04:33;9.50;99.90
3190;DHT22;1606;51.946;10.558;2023-04-25T08:07:01;8.90;99.90
3190;DHT22;1606;51.946;10.558;2023-04-25T08:09:29;8.80;99.90
3190;DHT22;1606;51.946;10.558;2023-04-25T08:12:02;9.00;99.90
3190;DHT22;1606;51.946;10.558;2023-04-25T08:14:30;9.30;99.90
3190;DHT22;1606;51.946;10.558;2023-04-25T08:17:02;9.70;99.90
3190;DHT22;1606;51.946;10.558;2023-04-25T08:19:31;9.90;99.50
3190;DHT22;1606;51.946;10.558;2023-04-25T08:21:58;10.20;99.10
3190;DHT22;1606;51.946;10.558;2023-04-25T08:24:26;10.30;97.50
3190;DHT22;1606;51.946;10.558;2023-04-25T08:26:54;10.30;98.50
3190;DHT22;1606;51.946;10.558;2023-04-25T08:29:23;10.10;98.90
3190;DHT22;1606;51.946;10.558;2023-04-25T08:31:52;10.10;99.90
3190;DHT22;1606;51.946;10.558;2023-04-25T08:34:20;10.20;99.90
3190;DHT22;1606;51.946;10.558;2023-04-25T08:36:48;10.30;99.90
3190;DHT22;1606;51.946;10.558;2023-04-25T08:39:16;10.40;99.80
3190;DHT22;1606;51.946;10.558;2023-04-25T08:41:44;10.40;99.90
3190;DHT22;1606;51.946;10.558;2023-04-25T08:44:12;10.60;99.90
3190;DHT22;1606;51.946;10.558;2023-04-25T08:46:42;10.60;99.80
3190;DHT22;1606;51.946;10.558;2023-04-25T08:49:14;10.50;98.10
3190;DHT22;1606;51.946;10.558;2023-04-25T08:51:45;10.40;99.30
3190;DHT22;1606;51.946;10.558;2023-04-25T08:54:14;10.70;99.50
3190;DHT22;1606;51.946;10.558;2023-04-25T08:57:01;11.10;99.70
3190;DHT22;1606;51.946;10.558;2023-04-25T08:59:31;11.20;98.00
3190;DHT22;1606;51.946;10.558;2023-04-25T09:02:02;11.20;95.10
3190;DHT22;1606;51.946;10.558;2023-04-25T09:04:30;10.80;95.10
3190;DHT22;1606;51.946;10.558;2023-04-25T09:06:58;10.80;95.50
3190;DHT22;1606;51.946;10.558;2023-04-25T09:09:26;10.80;94.80
3190;DHT22;1606;51.946;10.558;2023-04-25T09:11:54;10.50;93.90
3190;DHT22;1606;51.946;10.558;2023-04-25T09:14:23;10.30;94.20
3190;DHT22;1606;51.946;10.558;2023-04-25T09:16:59;10.30;95.00
3190;DHT22;1606;51.946;10.558;2023-04-25T09:19:30;10.40;95.10
3190;DHT22;1606;51.946;10.558;2023-04-25T09:22:07;10.30;94.20
3190;DHT22;1606;51.946;10.558;2023-04-25T09:24:36;10.20;94.40
3190;DHT22;1606;51.946;10.558;2023-04-25T09:27:09;10.50;94.50
3190;DHT22;1606;51.946;10.558;2023-04-25T09:29:38;10.20;93.80
3190;DHT22;1606;51.946;10.558;2023-04-25T09:32:16;10.00;94.70
3190;DHT22;1606;51.946;10.558;2023-04-25T09:34:47;10.30;94.90
3190;DHT22;1606;51.946;10.558;2023-04-25T09:37:19;10.10;92.80
3190;DHT22;1606;51.946;10.558;2023-04-25T09:39:48;10.00;93.00
3190;DHT22;1606;51.946;10.558;2023-04-25T09:42:17;10.00;92.40
3190;DHT22;1606;51.946;10.558;2023-04-25T09:44:46;9.90;93.40
3190;DHT22;1606;51.946;10.558;2023-04-25T09:47:15;10.10;93.60
3190;DHT22;1606;51.946;10.558;2023-04-25T09:49:45;10.20;93.50
3190;DHT22;1606;51.946;10.558;2023-04-25T09:52:15;10.30;93.50
3190;DHT22;1606;51.946;10.558;2023-04-25T09:54:44;10.30;91.70
3190;DHT22;1606;51.946;10.558;2023-04-25T09:57:14;10.60;92.30
3190;DHT22;1606;51.946;10.558;2023-04-25T09:59:46;10.60;90.90
3190;DHT22;1606;51.946;10.558;2023-04-25T10:02:17;10.70;91.60
3190;DHT22;1606;51.946;10.558;2023-04-25T10:04:49;10.80;91.90
3190;DHT22;1606;51.946;10.558;2023-04-25T10:07:20;11.30;91.10
3190;DHT22;1606;51.946;10.558;2023-04-25T10:09:50;11.70;90.70
3190;DHT22;1606;51.946;10.558;2023-04-25T10:12:19;11.90;85.70
3190;DHT22;1606;51.946;10.558;2023-04-25T10:14:47;12.00;87.20
3190;DHT22;1606;51.946;10.558;2023-04-25T10:17:15;11.20;86.40
3190;DHT22;1606;51.946;10.558;2023-04-25T10:19:44;11.30;88.90
3190;DHT22;1606;51.946;10.558;2023-04-25T10:22:18;11.40;86.80
3190;DHT22;1606;51.946;10.558;2023-04-25T10:24:47;11.30;86.40
3190;DHT22;1606;51.946;10.558;2023-04-25T10:27:16;11.40;88.70
3190;DHT22;1606;51.946;10.558;2023-04-25T10:29:44;11.40;90.30
3190;DHT22;1606;51.946;10.558;2023-04-25T10:32:12;11.40;87.60
3190;DHT22;1606;51.946;10.558;2023-04-25T10:34:42;11.20;84.50
3190;DHT22;1606;51.946;10.558;2023-04-25T10:37:15;11.00;85.10
3190;DHT22;1606;51.946;10.558;2023-04-25T10:39:46;10.70;86.20
3190;DHT22;1606;51.946;10.558;2023-04-25T10:42:14;10.70;87.50
3190;DHT22;1606;51.946;10.558;2023-04-25T10:45:01;10.40;87.80
3190;DHT22;1606;51.946;10.558;2023-04-25T10:47:35;10.10;90.10
3190;DHT22;1606;51.946;10.558;2023-04-25T10:50:08;10.00;90.90
3190;DHT22;1606;51.946;10.558;2023-04-25T10:52:38;10.40;91.10
3190;DHT22;1606;51.946;10.558;2023-04-25T10:55:07;10.50;88.80
3190;DHT22;1606;51.946;10.558;2023-04-25T10:57:40;10.70;91.40
3190;DHT22;1606;51.946;10.558;2023-04-25T11:00:11;10.80;90.50
3190;DHT22;1606;51.946;10.558;2023-04-25T11:02:43;10.90;90.50
3190;DHT22;1606;51.946;10.558;2023-04-25T11:05:20;11.30;91.10
3190;DHT22;1606;51.946;10.558;2023-04-25T11:07:52;11.50;89.30
3190;DHT22;1606;51.946;10.558;2023-04-25T11:10:33;11.50;88.20
3190;DHT22;1606;51.946;10.558;2023-04-25T11:13:03;11.80;86.60
3190;DHT22;1606;51.946;10.558;2023-04-25T11:15:31;11.80;87.70
3190;DHT22;1606;51.946;10.558;2023-04-25T11:17:58;11.30;87.70
3190;DHT22;1606;51.946;10.558;2023-04-25T11:20:27;10.80;89.00
3190;DHT22;1606;51.946;10.558;2023-04-25T11:22:58;10.70;90.30
3190;DHT22;1606;51.946;10.558;2023-04-25T11:25:28;10.80;90.30
3190;DHT22;1606;51.946;10.558;2023-04-25T11:27:57;10.90;91.10
3190;DHT22;1606;51.946;10.558;2023-04-25T11:30:27;11.20;91.60
3190;DHT22;1606;51.946;10.558;2023-04-25T11:32:57;11.20;90.90
3190;DHT22;1606;51.946;10.558;2023-04-25T11:35:26;11.20;90.30
3190;DHT22;1606;51.946;10.558;2023-04-25T11:37:54;11.00;89.60
3190;DHT22;1606;51.946;10.558;2023-04-25T11:40:23;11.10;90.10
3190;DHT22;1606;51.946;10.558;2023-04-25T11:42:51;11.00;88.70
3190;DHT22;1606;51.946;10.558;2023-04-25T11:45:23;11.10;88.10
3190;DHT22;1606;51.946;10.558;2023-04-25T11:47:51;11.10;85.30
3190;DHT22;1606;51.946;10.558;2023-04-25T11:50:19;11.30;87.30
3190;DHT22;1606;51.946;10.558;2023-04-25T11:52:48;11.10;84.80
3190;DHT22;1606;51.946;10.558;2023-04-25T11:55:18;11.20;84.40
3190;DHT22;1606;51.946;10.558;2023-04-25T11:57:49;11.10;82.80
3190;DHT22;1606;51.946;10.558;2023-04-25T12:00:19;11.20;82.60
3190;DHT22;1606;51.946;10.558;2023-04-25T12:02:50;11.20;82.30
3190;DHT22;1606;51.946;10.558;2023-04-25T12:05:18;11.30;85.50
3190;DHT22;1606;51.946;10.558;2023-04-25T12:08:10;11.40;83.80
3190;DHT22;1606;51.946;10.558;2023-04-25T12:10:39;11.20;86.20
3190;DHT22;1606;51.946;10.558;2023-04-25T12:13:22;11.40;87.10
3190;DHT22;1606;51.946;10.558;2023-04-25T12:15:50;11.40;85.70
3190;DHT22;1606;51.946;10.558;2023-04-25T12:18:19;11.40;88.20
3190;DHT22;1606;51.946;10.558;2023-04-25T12:20:48;11.70;88.40
3190;DHT22;1606;51.946;10.558;2023-04-25T12:23:16;11.60;84.60
3190;DHT22;1606;51.946;10.558;2023-04-25T12:25:44;11.50;87.00
3190;DHT22;1606;51.946;10.558;2023-04-25T12:28:15;12.00;87.10
3190;DHT22;1606;51.946;10.558;2023-04-25T12:30:54;12.20;86.00
3190;DHT22;1606;51.946;10.558;2023-04-25T12:33:23;12.10;83.10
3190;DHT22;1606;51.946;10.558;2023-04-25T12:35:50;11.90;83.70
3190;DHT22;1606;51.946;10.558;2023-04-25T12:38:23;11.70;82.10
3190;DHT22;1606;51.946;10.558;2023-04-25T12:40:51;11.80;85.00
3190;DHT22;1606;51.946;10.558;2023-04-25T12:43:20;12.00;85.30
3190;DHT22;1606;51.946;10.558;2023-04-25T12:45:49;11.80;85.10
3190;DHT22;1606;51.946;10.558;2023-04-25T12:48:19;11.80;87.30
3190;DHT22;1606;51.946;10.558;2023-04-25T12:50:48;11.60;87.30
3190;DHT22;1606;51.946;10.558;2023-04-25T12:53:18;11.10;89.00
3190;DHT22;1606;51.946;10.558;2023-04-25T12:55:46;11.10;89.00
3190;DHT22;1606;51.946;10.558;2023-04-25T12:58:15;11.20;88.40
3190;DHT22;1606;51.946;10.558;2023-04-25T13:00:44;11.10;89.70
3190;DHT22;1606;51.946;10.558;2023-04-25T13:03:12;11.30;90.20
3190;DHT22;1606;51.946;10.558;2023-04-25T13:05:42;11.50;90.00
3190;DHT22;1606;51.946;10.558;2023-04-25T13:08:10;11.40;90.30
3190;DHT22;1606;51.946;10.558;2023-04-25T13:10:38;11.50;91.00
3190;DHT22;1606;51.946;10.558;2023-04-25T13:13:06;11.50;90.20
3190;DHT22;1606;51.946;10.558;2023-04-25T13:15:35;11.40;89.80
3190;DHT22;1606;51.946;10.558;2023-04-25T13:18:03;11.10;91.00
3190;DHT22;1606;51.946;10.558;2023-04-25T13:20:32;11.00;92.40
3190;DHT22;1606;51.946;10.558;2023-04-25T13:23:01;10.90;91.90
3190;DHT22;1606;51.946;10.558;2023-04-25T13:25:28;10.60;92.30
3190;DHT22;1606;51.946;10.558;2023-04-25T13:27:56;10.60;92.20
3190;DHT22;1606;51.946;10.558;2023-04-25T13:30:24;10.50;91.60
3190;DHT22;1606;51.946;10.558;2023-04-25T13:32:53;10.70;92.80
3190;DHT22;1606;51.946;10.558;2023-04-25T13:35:23;10.80;92.20
3190;DHT22;1606;51.946;10.558;2023-04-25T13:37:51;11.00;92.20
3190;DHT22;1606;51.946;10.558;2023-04-25T13:40:20;11.00;91.20
3190;DHT22;1606;51.946;10.558;2023-04-25T13:42:51;11.00;91.10
3190;DHT22;1606;51.946;10.558;2023-04-25T13:45:19;10.80;90.50
3190;DHT22;1606;51.946;10.558;2023-04-25T13:47:47;10.60;90.10
3190;DHT22;1606;51.946;10.558;2023-04-25T13:50:14;10.70;91.40
3190;DHT22;1606;51.946;10.558;2023-04-25T13:52:42;11.30;90.80
3190;DHT22;1606;51.946;10.558;2023-04-25T13:55:11;11.50;84.60
3190;DHT22;1606;51.946;10.558;2023-04-25T13:57:40;11.80;84.00
3190;DHT22;1606;51.946;10.558;2023-04-25T14:00:09;11.90;83.90
3190;DHT22;1606;51.946;10.558;2023-04-25T14:02:38;12.10;85.60
3190;DHT22;1606;51.946;10.558;2023-04-25T14:05:07;12.30;85.70
3190;DHT22;1606;51.946;10.558;2023-04-25T14:07:36;12.10;85.70
3190;DHT22;1606;51.946;10.558;2023-04-25T14:10:05;12.20;86.10
3190;DHT22;1606;51.946;10.558;2023-04-25T14:12:33;12.10;87.00
3190;DHT22;1606;51.946;10.558;2023-04-25T14:15:03;11.90;86.10
3190;DHT22;1606;51.946;10.558;2023-04-25T14:17:31;11.70;87.80
3190;DHT22;1606;51.946;10.558;2023-04-25T14:19:59;11.60;88.80
3190;DHT22;1606;51.946;10.558;2023-04-25T14:22:27;11.70;89.20
3190;DHT22;1606;51.946;10.558;2023-04-25T14:24:54;11.70;88.00
3190;DHT22;1606;51.946;10.558;2023-04-25T14:27:22;12.00;88.90
3190;DHT22;1606;51.946;10.558;2023-04-25T14:29:51;11.50;85.70
3190;DHT22;1606;51.946;10.558;2023-04-25T14:32:20;11.50;86.70
3190;DHT22;1606;51.946;10.558;2023-04-25T14:34:48;11.50;86.70
3190;DHT22;1606;51.946;10.558;2023-04-25T14:37:16;11.40;86.20
3190;DHT22;1606;51.946;10.558;2023-04-25T14:39:43;11.60;85.60
3190;DHT22;1606;51.946;10.558;2023-04-25T14:42:12;11.40;85.20
3190;DHT22;1606;51.946;10.558;2023-04-25T14:44:39;11.40;86.00
3190;DHT22;1606;51.946;10.558;2023-04-25T14:47:07;11.50;87.50
3190;DHT22;1606;51.946;10.558;2023-04-25T14:49:37;11.90;86.90
3190;DHT22;1606;51.946;10.558;2023-04-25T14:52:04;11.90;86.20
3190;DHT22;1606;51.946;10.558;2023-04-25T14:54:33;11.30;86.40
3190;DHT22;1606;51.946;10.558;2023-04-25T14:57:00;11.30;89.40
3190;DHT22;1606;51.946;10.558;2023-04-25T14:59:28;11.40;88.10
3190;DHT22;1606;51.946;10.558;2023-04-25T15:01:56;11.20;88.80
3190;DHT22;1606;51.946;10.558;2023-04-25T15:04:25;11.10;89.80
3190;DHT22;1606;51.946;10.558;2023-04-25T15:06:55;11.10;90.50
3190;DHT22;1606;51.946;10.558;2023-04-25T15:09:23;10.80;90.70
3190;DHT22;1606;51.946;10.558;2023-04-25T15:11:51;11.10;90.90
3190;DHT22;1606;51.946;10.558;2023-04-25T15:14:19;11.40;90.80
3190;DHT22;1606;51.946;10.558;2023-04-25T15:16:47;11.70;89.80
3190;DHT22;1606;51.946;10.558;2023-04-25T15:19:15;12.00;87.90
3190;DHT22;1606;51.946;10.558;2023-04-25T15:21:42;12.30;88.90
3190;DHT22;1606;51.946;10.558;2023-04-25T15:24:12;12.60;85.80
3190;DHT22;1606;51.946;10.558;2023-04-25T15:26:43;12.50;86.30
3190;DHT22;1606;51.946;10.558;2023-04-25T15:29:11;12.40;85.90
3190;DHT22;1606;51.946;10.558;2023-04-25T15:31:39;12.30;86.60
3190;DHT22;1606;51.946;10.558;2023-04-25T15:34:07;12.30;86.30
3190;DHT22;1606;51.946;10.558;2023-04-25T15:36:35;12.10;87.40
3190;DHT22;1606;51.946;10.558;2023-04-25T15:39:03;12.00;87.40
3190;DHT22;1606;51.946;10.558;2023-04-25T15:41:32;11.80;86.80
3190;DHT22;1606;51.946;10.558;2023-04-25T15:44:00;11.80;86.40
3190;DHT22;1606;51.946;10.558;2023-04-25T15:46:28;12.00;87.40
3190;DHT22;1606;51.946;10.558;2023-04-25T15:48:57;11.60;90.40
3190;DHT22;1606;51.946;10.558;2023-04-25T15:51:25;11.00;92.30
3190;DHT22;1606;51.946;10.558;2023-04-25T15:53:53;10.50;94.00
3190;DHT22;1606;51.946;10.558;2023-04-25T15:56:21;10.50;94.90
3190;DHT22;1606;51.946;10.558;2023-04-25T15:58:51;10.40;95.70
3190;DHT22;1606;51.946;10.558;2023-04-25T16:01:20;10.40;96.90
3190;DHT22;1606;51.946;10.558;2023-04-25T16:03:50;10.30;97.50